createdAt,value
2018-03-02T00:00:35.678Z,-9.97
2018-03-02T00:01:45.635Z,-10.02
2018-03-02T00:02:55.059Z,-10.03
2018-03-02T00:04:04.759Z,-9.97
2018-03-02T00:05:14.717Z,-10.05
2018-03-02T00:06:24.412Z,-10.1
2018-03-02T00:07:33.846Z,-10.05
2018-03-02T00:08:43.796Z,-10.05
2018-03-02T00:09:53.537Z,-9.94
2018-03-02T00:11:03.475Z,-10.07
2018-03-02T00:12:13.429Z,-10.06
2018-03-02T00:13:23.380Z,-10.06
2018-03-02T00:14:33.066Z,-10.12
2018-03-02T00:15:42.765Z,-10.09
2018-03-02T00:16:52.455Z,-10.03
2018-03-02T00:18:01.884Z,-10.06
2018-03-02T00:19:11.563Z,-10.12
2018-03-02T00:20:21.281Z,-10.12
2018-03-02T00:21:30.453Z,-10.1
2018-03-02T00:22:39.938Z,-10.15
2018-03-02T00:23:49.672Z,-10.03
2018-03-02T00:24:59.355Z,-10.15
2018-03-02T00:26:08.779Z,-10.12
2018-03-02T00:27:18.488Z,-10.1
2018-03-02T00:28:28.183Z,-10.17
2018-03-02T00:29:37.872Z,-10.14
2018-03-02T00:30:47.560Z,-10.06
2018-03-02T00:31:57.517Z,-10.17
2018-03-02T00:33:07.198Z,-10.12
2018-03-02T00:34:17.161Z,-10.24
2018-03-02T00:35:26.852Z,-10.2
2018-03-02T00:36:36.280Z,-10.27
2018-03-02T00:37:45.714Z,-10.34
2018-03-02T00:38:55.147Z,-10.28
2018-03-02T00:40:05.099Z,-10.31
2018-03-02T00:41:14.789Z,-10.24
2018-03-02T00:42:24.741Z,-10.41
2018-03-02T00:43:34.438Z,-10.39
2018-03-02T00:44:43.603Z,-10.38
2018-03-02T00:45:53.305Z,-10.35
2018-03-02T00:47:03.011Z,-10.36
2018-03-02T00:48:13.052Z,-10.31
2018-03-02T00:49:22.985Z,-10.28
2018-03-02T00:50:32.677Z,-10.28
2018-03-02T00:51:42.114Z,-10.35
2018-03-02T00:52:51.787Z,-10.38
2018-03-02T00:54:01.217Z,-10.39
2018-03-02T00:55:10.387Z,-10.35
2018-03-02T00:56:20.331Z,-10.44
2018-03-02T00:57:30.019Z,-10.42
2018-03-02T00:58:39.965Z,-10.45
2018-03-02T00:59:49.666Z,-10.41
2018-03-02T01:00:59.621Z,-10.41
2018-03-02T01:02:09.316Z,-10.44
2018-03-02T01:03:19.266Z,-10.49
2018-03-02T01:04:29.464Z,-10.49
2018-03-02T01:05:38.893Z,-10.53
2018-03-02T01:06:48.593Z,-10.55
2018-03-02T01:07:58.019Z,-10.48
2018-03-02T01:09:07.452Z,-10.49
2018-03-02T01:10:16.634Z,-10.56
2018-03-02T01:11:26.802Z,-10.55
2018-03-02T01:12:36.772Z,-10.57
2018-03-02T01:13:46.219Z,-10.56
2018-03-02T01:14:56.167Z,-10.53
2018-03-02T01:16:06.123Z,-10.57
2018-03-02T01:17:15.813Z,-10.52
2018-03-02T01:18:25.764Z,-10.6
2018-03-02T01:19:35.711Z,-10.66
2018-03-02T01:20:45.401Z,-10.65
2018-03-02T01:21:55.353Z,-10.66
2018-03-02T01:23:05.309Z,-10.66
2018-03-02T01:24:15.281Z,-10.65
2018-03-02T01:25:25.243Z,-10.65
2018-03-02T01:26:35.186Z,-10.73
2018-03-02T01:27:44.870Z,-10.71
2018-03-02T01:28:54.544Z,-10.6
2018-03-02T01:30:03.977Z,-10.73
2018-03-02T01:31:13.666Z,-10.78
2018-03-02T01:32:23.609Z,-10.74
2018-03-02T01:33:33.297Z,-10.74
2018-03-02T01:34:42.736Z,-10.65
2018-03-02T01:35:52.681Z,-10.74
2018-03-02T01:37:02.365Z,-10.67
2018-03-02T01:38:12.057Z,-10.78
2018-03-02T01:39:22.010Z,-10.81
2018-03-02T01:40:31.695Z,-10.81
2018-03-02T01:41:41.397Z,-10.8
2018-03-02T01:42:51.352Z,-10.78
2018-03-02T01:44:01.066Z,-10.74
2018-03-02T01:45:10.751Z,-10.8
2018-03-02T01:46:20.423Z,-10.81
2018-03-02T01:47:30.379Z,-10.77
2018-03-02T01:48:40.328Z,-10.8
2018-03-02T01:49:50.026Z,-10.77
2018-03-02T01:50:59.711Z,-10.8
2018-03-02T01:52:09.394Z,-10.78
2018-03-02T01:53:19.388Z,-10.81
2018-03-02T01:54:29.337Z,-10.76
2018-03-02T01:55:39.081Z,-10.83
2018-03-02T01:56:48.724Z,-10.78
2018-03-02T01:57:58.424Z,-10.78
2018-03-02T01:59:08.114Z,-10.74
2018-03-02T02:00:17.812Z,-10.92
2018-03-02T02:01:27.780Z,-10.78
2018-03-02T02:02:37.731Z,-10.78
2018-03-02T02:03:47.673Z,-10.93
2018-03-02T02:04:57.643Z,-10.92
2018-03-02T02:06:07.601Z,-10.97
2018-03-02T02:07:17.546Z,-10.93
2018-03-02T02:08:27.520Z,-10.93
2018-03-02T02:09:37.452Z,-10.9
2018-03-02T02:10:47.132Z,-10.97
2018-03-02T02:11:56.819Z,-11.03
2018-03-02T02:13:06.766Z,-11
2018-03-02T02:14:16.466Z,-10.99
2018-03-02T02:15:25.898Z,-10.97
2018-03-02T02:16:35.837Z,-10.96
2018-03-02T02:17:45.257Z,-11.13
2018-03-02T02:18:54.680Z,-10.99
2018-03-02T02:20:04.115Z,-10.99
2018-03-02T02:21:13.799Z,-11.06
2018-03-02T02:22:23.743Z,-11.11
2018-03-02T02:23:33.167Z,-11.1
2018-03-02T02:24:42.854Z,-11.02
2018-03-02T02:25:52.537Z,-10.99
2018-03-02T02:27:02.491Z,-11.03
2018-03-02T02:28:12.454Z,-11.13
2018-03-02T02:29:22.155Z,-11.06
2018-03-02T02:30:32.108Z,-11.1
2018-03-02T02:31:41.800Z,-11.16
2018-03-02T02:32:51.501Z,-11.1
2018-03-02T02:34:01.462Z,-11.13
2018-03-02T02:35:11.156Z,-11.16
2018-03-02T02:36:20.590Z,-11.14
2018-03-02T02:37:30.600Z,-11.13
2018-03-02T02:38:40.043Z,-11.21
2018-03-02T02:39:49.764Z,-11.24
2018-03-02T02:40:59.709Z,-11.2
2018-03-02T02:42:09.653Z,-11.21
2018-03-02T02:43:19.616Z,-11.24
2018-03-02T02:44:29.306Z,-11.29
2018-03-02T02:45:39.262Z,-11.32
2018-03-02T02:46:49.216Z,-11.31
2018-03-02T02:47:58.901Z,-11.32
2018-03-02T02:49:08.595Z,-11.26
2018-03-02T02:50:18.552Z,-11.28
2018-03-02T02:51:28.496Z,-11.32
2018-03-02T02:52:38.180Z,-11.32
2018-03-02T02:53:47.647Z,-11.34
2018-03-02T02:54:57.342Z,-11.38
2018-03-02T02:56:06.785Z,-11.52
2018-03-02T02:57:16.800Z,-11.38
2018-03-02T02:58:26.530Z,-11.39
2018-03-02T02:59:36.221Z,-11.35
2018-03-02T03:00:45.924Z,-11.38
2018-03-02T03:01:55.883Z,-11.35
2018-03-02T03:03:05.640Z,-11.44
2018-03-02T03:04:15.347Z,-11.37
2018-03-02T03:05:25.040Z,-11.41
2018-03-02T03:06:34.993Z,-11.38
2018-03-02T03:07:44.949Z,-11.42
2018-03-02T03:08:54.884Z,-11.34
2018-03-02T03:10:04.567Z,-11.5
2018-03-02T03:11:14.250Z,-11.37
2018-03-02T03:12:23.939Z,-11.38
2018-03-02T03:13:33.625Z,-11.45
2018-03-02T03:14:43.573Z,-11.41
2018-03-02T03:15:53.539Z,-11.5
2018-03-02T03:17:03.480Z,-11.5
2018-03-02T03:18:13.166Z,-11.48
2018-03-02T03:19:23.157Z,-11.5
2018-03-02T03:20:33.123Z,-11.58
2018-03-02T03:21:43.063Z,-11.5
2018-03-02T03:22:52.490Z,-11.45
2018-03-02T03:24:01.914Z,-11.53
2018-03-02T03:25:11.337Z,-11.56
2018-03-02T03:26:21.294Z,-11.56
2018-03-02T03:27:31.249Z,-11.49
2018-03-02T03:28:41.445Z,-11.45
2018-03-02T03:29:51.396Z,-11.5
2018-03-02T03:31:01.080Z,-11.55
2018-03-02T03:32:10.781Z,-11.5
2018-03-02T03:33:19.945Z,-11.55
2018-03-02T03:34:29.626Z,-11.52
2018-03-02T03:35:39.095Z,-11.55
2018-03-02T03:36:48.774Z,-11.55
2018-03-02T03:37:58.473Z,-11.59
2018-03-02T03:39:08.418Z,-11.59
2018-03-02T03:40:18.103Z,-11.59
2018-03-02T03:41:27.777Z,-11.56
2018-03-02T03:42:37.213Z,-11.58
2018-03-02T03:43:46.890Z,-11.59
2018-03-02T03:44:56.578Z,-11.68
2018-03-02T03:46:06.529Z,-11.55
2018-03-02T03:47:16.222Z,-11.7
2018-03-02T03:48:25.897Z,-11.71
2018-03-02T03:49:35.579Z,-11.62
2018-03-02T03:50:45.526Z,-11.66
2018-03-02T03:51:55.219Z,-11.66
2018-03-02T03:53:05.160Z,-11.63
2018-03-02T03:54:15.153Z,-11.68
2018-03-02T03:55:25.100Z,-11.71
2018-03-02T03:56:34.798Z,-11.62
2018-03-02T03:57:44.476Z,-11.68
2018-03-02T03:58:54.414Z,-11.7
2018-03-02T04:00:04.100Z,-11.71
2018-03-02T04:01:14.037Z,-11.76
2018-03-02T04:02:23.991Z,-11.74
2018-03-02T04:03:34.008Z,-11.68
2018-03-02T04:04:43.971Z,-11.81
2018-03-02T04:05:53.918Z,-11.77
2018-03-02T04:07:03.599Z,-11.87
2018-03-02T04:08:13.655Z,-11.78
2018-03-02T04:09:23.598Z,-11.85
2018-03-02T04:10:33.536Z,-11.88
2018-03-02T04:11:43.490Z,-11.84
2018-03-02T04:12:53.441Z,-11.84
2018-03-02T04:14:03.129Z,-11.81
2018-03-02T04:15:12.551Z,-11.89
2018-03-02T04:16:22.232Z,-11.8
2018-03-02T04:17:31.659Z,-11.84
2018-03-02T04:18:41.345Z,-11.85
2018-03-02T04:19:51.307Z,-11.88
2018-03-02T04:21:01.252Z,-11.74
2018-03-02T04:22:10.681Z,-11.87
2018-03-02T04:23:20.735Z,-11.84
2018-03-02T04:24:30.734Z,-11.87
2018-03-02T04:25:40.671Z,-11.85
2018-03-02T04:26:50.616Z,-11.89
2018-03-02T04:28:00.562Z,-11.81
2018-03-02T04:29:10.261Z,-11.89
2018-03-02T04:30:20.211Z,-11.94
2018-03-02T04:31:30.167Z,-11.87
2018-03-02T04:32:40.372Z,-11.88
2018-03-02T04:33:50.305Z,-11.94
2018-03-02T04:34:59.977Z,-11.97
2018-03-02T04:36:09.680Z,-11.98
2018-03-02T04:37:19.380Z,-11.91
2018-03-02T04:38:28.818Z,-11.91
2018-03-02T04:39:38.242Z,-11.89
2018-03-02T04:40:47.657Z,-11.99
2018-03-02T04:41:57.604Z,-12.03
2018-03-02T04:43:07.549Z,-12.03
2018-03-02T04:44:17.238Z,-11.98
2018-03-02T04:45:26.936Z,-11.88
2018-03-02T04:46:36.618Z,-12.03
2018-03-02T04:47:46.307Z,-11.97
2018-03-02T04:48:55.991Z,-11.94
2018-03-02T04:50:05.678Z,-12.03
2018-03-02T04:51:15.113Z,-11.87
2018-03-02T04:52:25.067Z,-11.94
2018-03-02T04:53:35.003Z,-11.98
2018-03-02T04:54:44.420Z,-12.03
2018-03-02T04:55:54.369Z,-12.01
2018-03-02T04:57:04.306Z,-12.01
2018-03-02T04:58:13.980Z,-12.06
2018-03-02T04:59:22.889Z,-11.88
2018-03-02T05:00:32.594Z,-12.05
2018-03-02T05:01:42.280Z,-12.03
2018-03-02T05:02:51.964Z,-12.01
2018-03-02T05:04:01.644Z,-11.98
2018-03-02T05:05:11.327Z,-12.03
2018-03-02T05:06:21.005Z,-12.01
2018-03-02T05:07:30.442Z,-12.01
2018-03-02T05:08:40.400Z,-12.12
2018-03-02T05:09:49.827Z,-12.06
2018-03-02T05:10:59.793Z,-12.05
2018-03-02T05:12:09.463Z,-12.12
2018-03-02T05:13:19.404Z,-12.15
2018-03-02T05:14:29.350Z,-12.12
2018-03-02T05:15:39.050Z,-12.1
2018-03-02T05:16:48.746Z,-12.1
2018-03-02T05:17:58.439Z,-12.13
2018-03-02T05:19:08.384Z,-12.13
2018-03-02T05:20:18.077Z,-12.1
2018-03-02T05:21:27.778Z,-12.05
2018-03-02T05:22:37.457Z,-12.09
2018-03-02T05:23:47.423Z,-12.13
2018-03-02T05:24:57.104Z,-12.09
2018-03-02T05:26:06.808Z,-12.05
2018-03-02T05:27:16.795Z,-12.06
2018-03-02T05:28:26.478Z,-12.1
2018-03-02T05:29:36.175Z,-12.13
2018-03-02T05:30:46.130Z,-12.1
2018-03-02T05:31:56.078Z,-12.05
2018-03-02T05:33:05.514Z,-12.15
2018-03-02T05:34:15.471Z,-12.09
2018-03-02T05:35:24.912Z,-12.01
2018-03-02T05:36:34.879Z,-12.12
2018-03-02T05:37:44.825Z,-12.06
2018-03-02T05:38:54.256Z,-12.08
2018-03-02T05:40:03.684Z,-12.03
2018-03-02T05:41:13.376Z,-12.12
2018-03-02T05:42:23.323Z,-12.09
2018-03-02T05:43:33.028Z,-12.1
2018-03-02T05:44:42.714Z,-12.09
2018-03-02T05:45:52.691Z,-12.08
2018-03-02T05:47:02.663Z,-11.99
2018-03-02T05:48:12.361Z,-12.06
2018-03-02T05:49:22.046Z,-12.09
2018-03-02T05:50:31.484Z,-12.15
2018-03-02T05:51:41.448Z,-12.13
2018-03-02T05:52:51.202Z,-12.01
2018-03-02T05:54:01.164Z,-12.12
2018-03-02T05:55:11.112Z,-12.08
2018-03-02T05:56:20.844Z,-12.15
2018-03-02T05:57:30.787Z,-12.15
2018-03-02T05:58:40.483Z,-12.09
2018-03-02T05:59:50.445Z,-12.13
2018-03-02T06:01:00.391Z,-12.12
2018-03-02T06:02:10.337Z,-12.03
2018-03-02T06:03:20.281Z,-12.08
2018-03-02T06:04:29.961Z,-12.06
2018-03-02T06:05:39.650Z,-12.01
2018-03-02T06:06:49.596Z,-12.1
2018-03-02T06:07:59.546Z,-12.01
2018-03-02T06:09:08.978Z,-12.13
2018-03-02T06:10:18.677Z,-11.99
2018-03-02T06:11:28.623Z,-12.08
2018-03-02T06:12:38.066Z,-12.01
2018-03-02T06:13:47.759Z,-12.01
2018-03-02T06:14:57.182Z,-12.01
2018-03-02T06:16:06.887Z,-12.05
2018-03-02T06:17:16.846Z,-12.03
2018-03-02T06:18:26.267Z,-12.1
2018-03-02T06:19:35.954Z,-12.06
2018-03-02T06:20:45.373Z,-12.03
2018-03-02T06:21:55.400Z,-12.05
2018-03-02T06:23:05.098Z,-12.09
2018-03-02T06:24:14.540Z,-12.01
2018-03-02T06:25:23.970Z,-11.98
2018-03-02T06:26:33.668Z,-12.03
2018-03-02T06:27:43.620Z,-12.06
2018-03-02T06:28:53.568Z,-11.91
2018-03-02T06:30:03.511Z,-11.91
2018-03-02T06:31:13.207Z,-11.89
2018-03-02T06:32:23.163Z,-11.92
2018-03-02T06:33:32.860Z,-11.87
2018-03-02T06:34:42.810Z,-11.84
2018-03-02T06:35:52.494Z,-11.78
2018-03-02T06:37:02.482Z,-11.81
2018-03-02T06:38:12.192Z,-11.77
2018-03-02T06:39:21.894Z,-11.76
2018-03-02T06:40:31.841Z,-11.8
2018-03-02T06:41:41.813Z,-11.71
2018-03-02T06:42:51.495Z,-11.66
2018-03-02T06:44:00.917Z,-11.71
2018-03-02T06:45:10.344Z,-11.63
2018-03-02T06:46:19.789Z,-11.7
2018-03-02T06:47:29.235Z,-11.71
2018-03-02T06:48:38.943Z,-11.68
2018-03-02T06:49:48.910Z,-11.63
2018-03-02T06:50:58.346Z,-11.55
2018-03-02T06:52:08.090Z,-11.6
2018-03-02T06:53:18.072Z,-11.56
2018-03-02T06:54:27.776Z,-11.49
2018-03-02T06:55:37.511Z,-11.53
2018-03-02T06:56:47.463Z,-11.41
2018-03-02T06:57:57.162Z,-11.45
2018-03-02T06:59:06.867Z,-11.49
2018-03-02T07:00:16.822Z,-11.45
2018-03-02T07:01:26.788Z,-11.49
2018-03-02T07:02:36.489Z,-11.41
2018-03-02T07:03:46.456Z,-11.39
2018-03-02T07:04:56.142Z,-11.31
2018-03-02T07:06:05.840Z,-11.26
2018-03-02T07:07:15.790Z,-11.26
2018-03-02T07:08:25.481Z,-11.18
2018-03-02T07:09:35.232Z,-11.2
2018-03-02T07:10:45.221Z,-11.14
2018-03-02T07:11:54.415Z,-11.16
2018-03-02T07:13:04.375Z,-11.14
2018-03-02T07:14:14.318Z,-11.2
2018-03-02T07:15:24.278Z,-11.02
2018-03-02T07:16:33.990Z,-11.16
2018-03-02T07:17:43.678Z,-11.11
2018-03-02T07:18:53.629Z,-11
2018-03-02T07:20:03.083Z,-11.02
2018-03-02T07:21:13.042Z,-10.87
2018-03-02T07:22:22.996Z,-11
2018-03-02T07:23:32.968Z,-10.87
2018-03-02T07:24:42.673Z,-10.85
2018-03-02T07:25:52.642Z,-10.83
2018-03-02T07:27:02.070Z,-10.81
2018-03-02T07:28:12.042Z,-10.88
2018-03-02T07:29:21.514Z,-10.8
2018-03-02T07:30:31.605Z,-10.77
2018-03-02T07:31:41.572Z,-10.65
2018-03-02T07:32:51.557Z,-10.6
2018-03-02T07:34:01.261Z,-10.63
2018-03-02T07:35:10.703Z,-10.6
2018-03-02T07:36:20.666Z,-10.49
2018-03-02T07:37:30.422Z,-10.53
2018-03-02T07:38:40.149Z,-10.49
2018-03-02T07:39:49.856Z,-10.45
2018-03-02T07:40:59.830Z,-10.41
2018-03-02T07:42:09.806Z,-10.3
2018-03-02T07:43:19.783Z,-10.21
2018-03-02T07:44:29.765Z,-10.18
2018-03-02T07:45:39.476Z,-10.15
2018-03-02T07:46:48.915Z,-10.09
2018-03-02T07:47:58.629Z,-10.17
2018-03-02T07:49:08.331Z,-10.03
2018-03-02T07:50:18.322Z,-10.03
2018-03-02T07:51:28.284Z,-10.06
2018-03-02T07:52:37.226Z,-10
2018-03-02T07:53:46.668Z,-9.94
2018-03-02T07:54:56.635Z,-9.88
2018-03-02T07:56:06.074Z,-9.82
2018-03-02T07:57:16.055Z,-9.76
2018-03-02T07:58:26.032Z,-9.79
2018-03-02T07:59:35.727Z,-9.67
2018-03-02T08:00:45.435Z,-9.64
2018-03-02T08:01:55.408Z,-9.56
2018-03-02T08:03:05.110Z,-9.6
2018-03-02T08:04:15.378Z,-9.45
2018-03-02T08:05:25.166Z,-9.46
2018-03-02T08:06:35.167Z,-9.45
2018-03-02T08:07:45.176Z,-9.37
2018-03-02T08:08:55.148Z,-9.27
2018-03-02T08:10:04.867Z,-9.34
2018-03-02T08:11:14.837Z,-9.24
2018-03-02T08:12:24.542Z,-9.23
2018-03-02T08:13:33.994Z,-9.24
2018-03-02T08:14:43.966Z,-9.23
2018-03-02T08:15:53.991Z,-8.99
2018-03-02T08:17:03.965Z,-8.99
2018-03-02T08:18:13.679Z,-8.92
2018-03-02T08:19:23.642Z,-8.75
2018-03-02T08:20:33.383Z,-8.64
2018-03-02T08:21:42.824Z,-8.42
2018-03-02T08:22:52.538Z,-8.31
2018-03-02T08:24:02.503Z,-8.1
2018-03-02T08:25:12.462Z,-7.92
2018-03-02T08:26:22.487Z,-7.74
2018-03-02T08:27:32.210Z,-7.53
2018-03-02T08:28:41.651Z,-7.36
2018-03-02T08:29:51.618Z,-7.17
2018-03-02T08:31:01.319Z,-7.17
2018-03-02T08:32:11.030Z,-7.2
2018-03-02T08:33:20.744Z,-6.99
2018-03-02T08:34:30.776Z,-6.95
2018-03-02T08:35:40.746Z,-6.86
2018-03-02T08:36:50.705Z,-6.67
2018-03-02T08:38:00.428Z,-6.42
2018-03-02T08:39:10.128Z,-6.21
2018-03-02T08:40:19.845Z,-6.23
2018-03-02T08:41:29.968Z,-6.12
2018-03-02T08:42:39.931Z,-5.92
2018-03-02T08:43:49.905Z,-5.87
2018-03-02T08:44:59.870Z,-5.81
2018-03-02T08:46:09.652Z,-5.78
2018-03-02T08:47:19.638Z,-5.56
2018-03-02T08:48:29.641Z,-5.41
2018-03-02T08:49:39.613Z,-5.21
2018-03-02T08:50:49.568Z,-5.16
2018-03-02T08:51:59.526Z,-5.02
2018-03-02T08:53:09.498Z,-5.05
2018-03-02T08:54:19.201Z,-5.02
2018-03-02T08:55:28.916Z,-5.02
2018-03-02T08:56:38.617Z,-4.87
2018-03-02T08:57:48.374Z,-4.81
2018-03-02T08:58:58.187Z,-4.76
2018-03-02T09:00:07.375Z,-4.81
2018-03-02T09:01:17.430Z,-4.74
2018-03-02T09:02:27.126Z,-4.63
2018-03-02T09:03:36.938Z,-4.62
2018-03-02T09:04:46.647Z,-4.73
2018-03-02T09:05:56.348Z,-4.73
2018-03-02T09:07:05.530Z,-4.77
2018-03-02T09:08:14.991Z,-4.76
2018-03-02T09:09:24.954Z,-4.67
2018-03-02T09:10:34.922Z,-4.42
2018-03-02T09:11:44.388Z,-4.62
2018-03-02T09:12:54.403Z,-4.61
2018-03-02T09:14:04.359Z,-4.42
2018-03-02T09:15:14.066Z,-4.52
2018-03-02T09:16:24.040Z,-4.44
2018-03-02T09:17:34.015Z,-4.7
2018-03-02T09:18:43.740Z,-4.83
2018-03-02T09:19:53.477Z,-4.74
2018-03-02T09:21:03.454Z,-4.45
2018-03-02T09:22:13.160Z,-4.67
2018-03-02T09:23:23.111Z,-4.76
2018-03-02T09:24:32.295Z,-4.65
2018-03-02T09:25:42.050Z,-4.4
2018-03-02T09:26:51.242Z,-4.37
2018-03-02T09:28:00.960Z,-4.31
2018-03-02T09:29:10.670Z,-4.42
2018-03-02T09:30:20.376Z,-4.45
2018-03-02T09:31:29.868Z,-4.41
2018-03-02T09:32:39.839Z,-4.35
2018-03-02T09:33:49.820Z,-4.2
2018-03-02T09:34:59.521Z,-4.04
2018-03-02T09:36:09.490Z,-3.94
2018-03-02T09:37:19.508Z,-3.81
2018-03-02T09:38:29.601Z,-3.59
2018-03-02T09:39:39.306Z,-3.61
2018-03-02T09:40:49.036Z,-3.59
2018-03-02T09:41:58.745Z,-3.4
2018-03-02T09:43:08.193Z,-3.37
2018-03-02T09:44:17.896Z,-3.25
2018-03-02T09:45:27.875Z,-3.36
2018-03-02T09:46:37.589Z,-3.25
2018-03-02T09:47:47.290Z,-3.01
2018-03-02T09:48:57.257Z,-2.99
2018-03-02T09:50:07.220Z,-2.8
2018-03-02T09:51:17.193Z,-2.52
2018-03-02T09:52:26.998Z,-2.54
2018-03-02T09:53:37.081Z,-2.33
2018-03-02T09:54:46.780Z,-2.36
2018-03-02T09:55:56.513Z,-2.32
2018-03-02T09:57:06.005Z,-2.07
2018-03-02T09:58:15.976Z,-2.25
2018-03-02T09:59:25.732Z,-2.05
2018-03-02T10:00:35.450Z,-1.97
2018-03-02T10:01:45.191Z,-2.17
2018-03-02T10:02:55.152Z,-2.28
2018-03-02T10:04:05.154Z,-2.36
2018-03-02T10:05:14.784Z,-2.47
2018-03-02T10:06:24.848Z,-2.5
2018-03-02T10:07:34.294Z,-2.72
2018-03-02T10:08:44.251Z,-2.86
2018-03-02T10:09:54.209Z,-2.91
2018-03-02T10:11:04.179Z,-3.01
2018-03-02T10:12:13.634Z,-2.94
2018-03-02T10:13:23.601Z,-2.72
2018-03-02T10:14:33.563Z,-2.26
2018-03-02T10:15:43.555Z,-2.34
2018-03-02T10:16:53.527Z,-2.33
2018-03-02T10:18:03.497Z,-2.05
2018-03-02T10:19:13.471Z,-1.72
2018-03-02T10:20:23.435Z,-1.57
2018-03-02T10:21:33.154Z,-1.61
2018-03-02T10:22:42.854Z,-1.35
2018-03-02T10:23:52.842Z,-1.4
2018-03-02T10:25:02.544Z,-1.33
2018-03-02T10:26:12.518Z,-1.56
2018-03-02T10:27:22.484Z,-1.45
2018-03-02T10:28:31.924Z,-1.21
2018-03-02T10:29:41.911Z,-1.12
2018-03-02T10:30:51.629Z,-1.35
2018-03-02T10:32:01.333Z,-1.6
2018-03-02T10:33:11.057Z,-1.99
2018-03-02T10:34:20.766Z,-2.17
2018-03-02T10:35:30.222Z,-2.26
2018-03-02T10:36:39.404Z,-2.02
2018-03-02T10:37:49.127Z,-1.84
2018-03-02T10:38:58.844Z,-1.66
2018-03-02T10:40:08.560Z,-1.71
2018-03-02T10:41:18.527Z,-1.92
2018-03-02T10:42:28.497Z,-1.92
2018-03-02T10:43:38.465Z,-1.79
2018-03-02T10:44:48.444Z,-1.57
2018-03-02T10:45:58.160Z,-1.57
2018-03-02T10:47:07.365Z,-1.4
2018-03-02T10:48:17.316Z,-1.17
2018-03-02T10:49:26.784Z,-1.35
2018-03-02T10:50:36.498Z,-1.66
2018-03-02T10:51:46.220Z,-1.32
2018-03-02T10:52:56.207Z,-1.07
2018-03-02T10:54:05.932Z,-1
2018-03-02T10:55:15.893Z,-0.99
2018-03-02T10:56:25.853Z,-0.78
2018-03-02T10:57:35.318Z,-0.84
2018-03-02T10:58:45.273Z,-0.97
2018-03-02T10:59:54.976Z,-0.81
2018-03-02T11:01:04.431Z,-0.66
2018-03-02T11:02:14.395Z,-0.56
2018-03-02T11:03:24.381Z,-0.57
2018-03-02T11:04:34.349Z,-0.63
2018-03-02T11:05:44.326Z,-0.56
2018-03-02T11:06:54.047Z,-0.31
2018-03-02T11:08:03.564Z,-0.12
2018-03-02T11:09:13.535Z,-0.15
2018-03-02T11:10:23.500Z,-0.35
2018-03-02T11:11:33.478Z,-0.05
2018-03-02T11:12:43.204Z,0.19
2018-03-02T11:13:52.699Z,0.49
2018-03-02T11:15:02.147Z,0.56
2018-03-02T11:16:11.598Z,0.82
2018-03-02T11:17:21.589Z,0.81
2018-03-02T11:18:31.323Z,1
2018-03-02T11:19:41.324Z,0.94
2018-03-02T11:20:51.059Z,1.09
2018-03-02T11:22:00.847Z,0.99
2018-03-02T11:23:10.821Z,0.95
2018-03-02T11:24:20.290Z,0.71
2018-03-02T11:25:30.309Z,0.59
2018-03-02T11:26:39.746Z,0.64
2018-03-02T11:27:49.730Z,0.7
2018-03-02T11:28:59.710Z,0.51
2018-03-02T11:30:09.531Z,0.15
2018-03-02T11:31:19.519Z,0.12
2018-03-02T11:32:28.993Z,0.19
2018-03-02T11:33:39.002Z,0.48
2018-03-02T11:34:48.722Z,0.84
2018-03-02T11:35:58.700Z,1
2018-03-02T11:37:08.155Z,1.24
2018-03-02T11:38:17.887Z,1.27
2018-03-02T11:39:27.865Z,1.39
2018-03-02T11:40:37.338Z,1.39
2018-03-02T11:41:47.404Z,1.09
2018-03-02T11:42:57.117Z,0.82
2018-03-02T11:44:06.575Z,0.99
2018-03-02T11:45:16.143Z,1.43
2018-03-02T11:46:26.119Z,1.46
2018-03-02T11:47:35.566Z,1.46
2018-03-02T11:48:45.302Z,1.64
2018-03-02T11:49:55.264Z,1.46
2018-03-02T11:51:04.730Z,0.96
2018-03-02T11:52:14.474Z,0.45
2018-03-02T11:53:24.497Z,0.18
2018-03-02T11:54:34.219Z,-0.12
2018-03-02T11:55:43.934Z,-0.18
2018-03-02T11:56:53.886Z,0.09
2018-03-02T11:58:03.868Z,0.36
2018-03-02T11:59:13.829Z,0.02
2018-03-02T12:00:23.541Z,-0.17
2018-03-02T12:01:33.007Z,-0.3
2018-03-02T12:02:42.714Z,-0.17
2018-03-02T12:03:52.695Z,-0.06
2018-03-02T12:05:02.424Z,-0.28
2018-03-02T12:06:12.138Z,-0.1
2018-03-02T12:07:21.862Z,-0.13
2018-03-02T12:08:31.575Z,0.24
2018-03-02T12:09:41.313Z,0.64
2018-03-02T12:10:51.290Z,0.73
2018-03-02T12:12:01.290Z,1.13
2018-03-02T12:13:11.272Z,1.46
2018-03-02T12:14:20.997Z,1.34
2018-03-02T12:15:30.980Z,1.12
2018-03-02T12:16:40.945Z,0.99
2018-03-02T12:17:50.497Z,1.07
2018-03-02T12:19:00.462Z,1.42
2018-03-02T12:20:10.179Z,1.42
2018-03-02T12:21:19.876Z,1.03
2018-03-02T12:22:29.872Z,1.3
2018-03-02T12:23:39.734Z,1.39
2018-03-02T12:24:49.450Z,1.45
2018-03-02T12:25:59.442Z,1.39
2018-03-02T12:27:09.409Z,1.39
2018-03-02T12:28:19.135Z,1.18
2018-03-02T12:29:29.185Z,1.43
2018-03-02T12:30:38.897Z,1.49
2018-03-02T12:31:48.348Z,1.25
2018-03-02T12:32:58.325Z,1.42
2018-03-02T12:34:08.031Z,1.46
2018-03-02T12:35:17.737Z,1.38
2018-03-02T12:36:27.442Z,1.18
2018-03-02T12:37:37.218Z,0.84
2018-03-02T12:38:47.190Z,1.02
2018-03-02T12:39:56.688Z,0.36
2018-03-02T12:41:06.144Z,0.55
2018-03-02T12:42:15.593Z,0.77
2018-03-02T12:43:25.305Z,0.61
2018-03-02T12:44:35.178Z,0.59
2018-03-02T12:45:44.688Z,0.7
2018-03-02T12:46:54.141Z,0.73
2018-03-02T12:48:03.642Z,0.76
2018-03-02T12:49:13.645Z,0.71
2018-03-02T12:50:23.513Z,0.36
2018-03-02T12:51:33.241Z,0.33
2018-03-02T12:52:43.209Z,0.11
2018-03-02T12:53:52.401Z,0.2
2018-03-02T12:55:01.875Z,0.52
2018-03-02T12:56:11.665Z,0.68
2018-03-02T12:57:21.638Z,0.77
2018-03-02T12:58:31.107Z,1.22
2018-03-02T12:59:40.563Z,1.49
2018-03-02T13:00:50.274Z,1.97
2018-03-02T13:01:59.992Z,1.97
2018-03-02T13:03:09.706Z,1.64
2018-03-02T13:04:19.417Z,1.63
2018-03-02T13:05:29.108Z,1.71
2018-03-02T13:06:39.081Z,1.7
2018-03-02T13:07:49.053Z,1.45
2018-03-02T13:08:59.081Z,1.38
2018-03-02T13:10:09.080Z,1.32
2018-03-02T13:11:19.042Z,1.22
2018-03-02T13:12:29.005Z,1.39
2018-03-02T13:13:38.979Z,1.45
2018-03-02T13:14:48.711Z,1.42
2018-03-02T13:15:58.737Z,1.42
2018-03-02T13:17:08.475Z,1.21
2018-03-02T13:18:18.478Z,1.38
2018-03-02T13:19:28.458Z,1.3
2018-03-02T13:20:37.903Z,1.74
2018-03-02T13:21:47.880Z,2.07
2018-03-02T13:22:57.857Z,2.51
2018-03-02T13:24:07.866Z,2.82
2018-03-02T13:25:17.827Z,2.93
2018-03-02T13:26:27.031Z,3.12
2018-03-02T13:27:36.748Z,3.03
2018-03-02T13:28:46.724Z,2.8
2018-03-02T13:29:56.455Z,2.65
2018-03-02T13:31:06.688Z,2.9
2018-03-02T13:32:16.144Z,3.08
2018-03-02T13:33:25.851Z,3.36
2018-03-02T13:34:35.548Z,3.21
2018-03-02T13:35:45.265Z,2.97
2018-03-02T13:36:54.738Z,2.85
2018-03-02T13:38:04.715Z,3
2018-03-02T13:39:14.455Z,2.77
2018-03-02T13:40:24.198Z,2.65
2018-03-02T13:41:33.917Z,2.65
2018-03-02T13:42:43.678Z,2.36
2018-03-02T13:43:53.674Z,1.95
2018-03-02T13:45:03.389Z,2.01
2018-03-02T13:46:13.408Z,2.04
2018-03-02T13:47:23.375Z,2.03
2018-03-02T13:48:33.089Z,2.4
2018-03-02T13:49:42.798Z,2.51
2018-03-02T13:50:52.501Z,2.3
2018-03-02T13:52:01.948Z,2.14
2018-03-02T13:53:11.657Z,2.16
2018-03-02T13:54:21.630Z,2.33
2018-03-02T13:55:31.362Z,2.26
2018-03-02T13:56:41.332Z,1.93
2018-03-02T13:57:51.302Z,1.52
2018-03-02T13:59:00.754Z,1.38
2018-03-02T14:00:10.729Z,1.21
2018-03-02T14:01:19.940Z,1.09
2018-03-02T14:02:29.416Z,1.49
2018-03-02T14:03:39.396Z,1.49
2018-03-02T14:04:49.114Z,1.42
2018-03-02T14:05:58.567Z,1.43
2018-03-02T14:07:08.529Z,1.57
2018-03-02T14:08:18.494Z,1.49
2018-03-02T14:09:28.527Z,1.28
2018-03-02T14:10:38.234Z,1.38
2018-03-02T14:11:47.694Z,1.46
2018-03-02T14:12:57.150Z,1.38
2018-03-02T14:14:06.867Z,1.46
2018-03-02T14:15:16.838Z,1.46
2018-03-02T14:16:26.544Z,1.42
2018-03-02T14:17:36.243Z,1.24
2018-03-02T14:18:45.951Z,1.38
2018-03-02T14:19:55.930Z,1.32
2018-03-02T14:21:05.940Z,1.38
2018-03-02T14:22:15.651Z,1.48
2018-03-02T14:23:25.637Z,1.57
2018-03-02T14:24:35.602Z,1.63
2018-03-02T14:25:45.575Z,1.6
2018-03-02T14:26:55.142Z,1.92
2018-03-02T14:28:04.859Z,2.14
2018-03-02T14:29:14.569Z,2.3
2018-03-02T14:30:24.074Z,2.07
2018-03-02T14:31:34.065Z,1.76
2018-03-02T14:32:43.771Z,1.86
2018-03-02T14:33:53.485Z,1.75
2018-03-02T14:35:03.451Z,1.88
2018-03-02T14:36:13.419Z,1.78
2018-03-02T14:37:23.141Z,1.78
2018-03-02T14:38:33.113Z,1.75
2018-03-02T14:39:43.091Z,1.64
2018-03-02T14:40:52.803Z,1.46
2018-03-02T14:42:02.508Z,1.42
2018-03-02T14:43:11.688Z,1.42
2018-03-02T14:44:21.131Z,1.43
2018-03-02T14:45:30.580Z,1.12
2018-03-02T14:46:40.544Z,1.32
2018-03-02T14:47:50.251Z,1.4
2018-03-02T14:49:00.227Z,1.2
2018-03-02T14:50:09.943Z,1.04
2018-03-02T14:51:19.936Z,0.86
2018-03-02T14:52:29.377Z,0.77
2018-03-02T14:53:39.101Z,0.67